HAVK1: Arkansas River, Hutchinson, KS

Data processed at Thu Jan 04 2018 23:38


All information presented herein is the property of the government of the United States of America and may be revised or deleted at any time without prior notice.
Dissemination of this information without the expressed written consent of the Public Affairs Office, Tulsa District U.S. Army Corps of Engineers is strictly prohibited.
These data are gathered electronically and, as presented, have not undergone any form of quality control. These data are not guaranteed to be valid or correct.
Go to home page.
Go to station list.

Upstream stations:

Downstream station:
Previous Day
Next Day
Current Day
    
SHEF ID:       HAVK1     ARKANSAS R NR HUTCHINSON, KS
STATION TYPE:  

               PRECIP     STAGE  RIV-FLOW  BAT-LOAD
                   in        ft       cfs      volt
              Ccp-Rev   Ccp-Rev   Ccp-Rev   Ccp-Rev
(US/Central)
01/02 00:00      0.00      3.05       329     11.77
01/02 01:00      0.00      3.18       370     11.77
01/02 02:00      0.00      3.03       323     11.77
01/02 03:00      0.00      2.93       294     12.13
01/02 04:00      0.00      2.94       297     12.13
01/02 05:00      0.00      2.93       294     12.13
01/02 06:00      0.00      3.02       320     12.13
01/02 07:00      0.00      3.18       370     11.77
01/02 08:00      0.00      2.92       291     11.77
01/02 09:00      0.00      2.93       294     11.89
01/02 10:00      0.00      2.92       291     13.30
01/02 11:00      0.00      2.96       303     13.77
01/02 12:00      0.00      2.96       303     14.47
01/02 13:00      0.00      3.01       317     13.30
01/02 14:00      0.00      3.03       323     13.30
01/02 15:00      0.00      3.08       338     13.12
01/02 16:00      0.00      3.10       345     12.95
01/02 17:00      0.00      3.10       345     12.77
01/02 18:00      0.00      3.10       345     12.71
01/02 19:00      0.00      3.09       341     12.65
01/02 20:00      0.00      3.05       329     12.60
01/02 21:00      0.00      3.03       323     12.60
01/02 22:00      0.00      3.00       314     12.54
01/02 23:00      0.00      2.97       306     12.54